Skip to main content.
 TIME   TEMPERATURE   WINDSPEED   DIRECTION   HUMIDITY   BAROMETER   RAINFALL 
8:20 22.0°C (71.6°F) 18.5 kmh (11.5 mph) S 78% 1015.9hPa (30.00 inHg) 0.0mm (0.00 in.)
7:20 22.0°C (71.6 °F) 18.5 kmh (11.5 mph) S 78% 1015.9hPa (30.00 inHg) 0.0mm (0.00 in.)
6:20 22.0°C (71.6 °F) 18.5 kmh (11.5 mph) SSE 78% 1015.9hPa (30.00 inHg) 0.0mm (0.00 in.)
5:20 22.0°C (71.6 °F) 24.1 kmh (15.0 mph) SSE 78% 1015.9hPa (30.00 inHg) 0.0mm (0.00 in.)
4:20 22.0°C (71.6 °F) 24.1 kmh (15.0 mph) SSE 73% 1015.9hPa (30.00 inHg) 0.0mm (0.00 in.)
3:20 21.0°C (69.8 °F) 20.4 kmh (12.7 mph) SSE 77% 1016.9hPa (30.03 inHg) 0.0mm (0.00 in.)
2:20 21.0°C (69.8 °F) 20.4 kmh (12.7 mph) SSE 77% 1016.9hPa (30.03 inHg) 0.0mm (0.00 in.)
1:20 21.0°C (69.8 °F) 20.4 kmh (12.7 mph) SE 77% 1016.9hPa (30.03 inHg) 0.0mm (0.00 in.)
0:20 21.0°C (69.8 °F) 18.5 kmh (11.5 mph) SSE 77% 1017.9hPa (30.06 inHg) 0.0mm (0.00 in.)
23:20 21.0°C (69.8 °F) 16.7 kmh (10.4 mph) SSE 73% 1017.9hPa (30.06 inHg) 0.0mm (0.00 in.)
22:20 21.0°C (69.8 °F) 14.8 kmh (9.2 mph) SSE 73% 1017.9hPa (30.06 inHg) 0.0mm (0.00 in.)
21:20 21.0°C (69.8 °F) 14.8 kmh (9.2 mph) SSE 73% 1017.9hPa (30.06 inHg) 0.0mm (0.00 in.)
20:20 22.0°C (71.6 °F) 20.4 kmh (12.7 mph) SE 78% 1017.9hPa (30.06 inHg) 0.0mm (0.00 in.)
19:20 22.0°C (71.6 °F) 14.8 kmh (9.2 mph) SE 78% 1017.9hPa (30.06 inHg) 0.0mm (0.00 in.)
18:20 22.0°C (71.6 °F) 22.2 kmh (13.8 mph) SE 73% 1017.9hPa (30.06 inHg) 0.0mm (0.00 in.)
17:20 23.0°C (73.4 °F) 22.2 kmh (13.8 mph) SE 68% 1016.9hPa (30.03 inHg) 0.0mm (0.00 in.)
16:20 24.0°C (75.2 °F) 24.1 kmh (15.0 mph) SE 64% 1017.9hPa (30.06 inHg) 0.0mm (0.00 in.)
15:20 25.0°C (77.0 °F) 18.5 kmh (11.5 mph) SE 57% 1017.9hPa (30.06 inHg) 0.0mm (0.00 in.)
14:20 24.0°C (75.2 °F) 25.9 kmh (16.1 mph) SSE 60% 1017.9hPa (30.06 inHg) 0.0mm (0.00 in.)
13:20 24.0°C (75.2 °F) 20.4 kmh (12.7 mph) SE 60% 1019.0hPa (30.09 inHg) 0.0mm (0.00 in.)
12:20 24.0°C (75.2 °F) 22.2 kmh (13.8 mph) SE 57% 1019.0hPa (30.09 inHg) 0.0mm (0.00 in.)
11:20 24.0°C (75.2 °F) 25.9 kmh (16.1 mph) SE 64% 1019.0hPa (30.09 inHg) 0.0mm (0.00 in.)
10:20 23.0°C (73.4 °F) 22.2 kmh (13.8 mph) SE 68% 1019.0hPa (30.09 inHg) 0.0mm (0.00 in.)
9:20 22.0°C (71.6 °F) 18.5 kmh (11.5 mph) SE 78% 1019.0hPa (30.09 inHg) 0.0mm (0.00 in.)